createdAt,value
2018-06-30T03:01:04.692Z,17.70
2018-06-30T03:02:03.302Z,17.65
2018-06-30T03:03:03.315Z,17.63
2018-06-30T03:04:03.535Z,17.48
2018-06-30T03:05:03.695Z,17.54
2018-06-30T03:06:03.807Z,17.52
2018-06-30T03:07:03.920Z,17.63
2018-06-30T03:08:04.135Z,17.56
2018-06-30T03:09:04.294Z,17.60
2018-06-30T03:10:04.538Z,17.63
2018-06-30T03:11:04.804Z,17.57
2018-06-30T03:12:04.856Z,17.57
2018-06-30T03:13:05.064Z,17.63
2018-06-30T03:14:05.201Z,17.65
2018-06-30T03:15:05.388Z,17.60
2018-06-30T03:16:05.596Z,17.56
2018-06-30T03:17:05.705Z,17.57
2018-06-30T03:18:05.918Z,17.59
2018-06-30T03:19:05.987Z,17.48
2018-06-30T03:20:06.265Z,17.54
2018-06-30T03:21:06.360Z,17.54
2018-06-30T03:22:06.556Z,17.51
2018-06-30T03:23:06.690Z,17.42
2018-06-30T03:24:06.927Z,17.42
2018-06-30T03:25:07.092Z,17.49
2018-06-30T03:26:07.226Z,17.45
2018-06-30T03:27:07.428Z,17.45
2018-06-30T03:28:07.570Z,17.49
2018-06-30T03:29:07.773Z,17.65
2018-06-30T03:30:07.897Z,17.59
2018-06-30T03:31:08.085Z,17.59
2018-06-30T03:32:08.290Z,17.48
2018-06-30T03:33:08.392Z,17.45
2018-06-30T03:34:08.624Z,17.48
2018-06-30T03:35:08.804Z,17.46
2018-06-30T03:36:09.003Z,17.54
2018-06-30T03:37:09.163Z,17.41
2018-06-30T03:38:09.307Z,17.39
2018-06-30T03:39:09.469Z,17.46
2018-06-30T03:40:09.653Z,17.41
2018-06-30T03:41:09.791Z,17.56
2018-06-30T03:42:09.981Z,17.51
2018-06-30T03:43:10.117Z,17.39
2018-06-30T03:44:10.387Z,17.54
2018-06-30T03:45:10.493Z,17.60
2018-06-30T03:46:10.754Z,17.64
2018-06-30T03:47:10.847Z,17.49
2018-06-30T03:48:10.998Z,17.48
2018-06-30T03:49:11.128Z,17.51
2018-06-30T03:50:11.334Z,17.49
2018-06-30T03:51:11.533Z,17.44
2018-06-30T03:52:11.636Z,17.49
2018-06-30T03:53:11.952Z,17.41
2018-06-30T03:54:12.070Z,17.49
2018-06-30T03:55:12.224Z,17.33
2018-06-30T03:56:12.363Z,17.31
2018-06-30T03:57:12.576Z,17.41
2018-06-30T03:58:12.695Z,17.41
2018-06-30T03:59:12.802Z,17.38
2018-06-30T04:00:12.995Z,17.39
2018-06-30T04:01:13.109Z,17.52
2018-06-30T04:02:13.294Z,17.51
2018-06-30T04:03:13.432Z,17.54
2018-06-30T04:04:13.685Z,17.56
2018-06-30T04:05:13.904Z,17.59
2018-06-30T04:06:14.039Z,17.41
2018-06-30T04:07:14.164Z,17.45
2018-06-30T04:08:14.376Z,17.46
2018-06-30T04:09:14.514Z,17.45
2018-06-30T04:10:14.622Z,17.54
2018-06-30T04:11:14.886Z,17.60
2018-06-30T04:12:15.025Z,17.60
2018-06-30T04:13:15.197Z,17.54
2018-06-30T04:14:15.352Z,17.59
2018-06-30T04:15:15.563Z,17.57
2018-06-30T04:16:15.688Z,17.56
2018-06-30T04:17:15.872Z,17.51
2018-06-30T04:18:16.029Z,17.56
2018-06-30T04:19:16.215Z,17.48
2018-06-30T04:20:16.434Z,17.57
2018-06-30T04:21:16.574Z,17.56
2018-06-30T04:22:16.740Z,17.60
2018-06-30T04:23:16.918Z,17.54
2018-06-30T04:24:17.069Z,17.52
2018-06-30T04:25:17.174Z,17.48
2018-06-30T04:26:17.370Z,17.56
2018-06-30T04:27:17.582Z,17.59
2018-06-30T04:28:17.768Z,17.70
2018-06-30T04:29:17.996Z,17.65
2018-06-30T04:30:18.105Z,17.68
2018-06-30T04:31:18.342Z,17.74
2018-06-30T04:32:18.405Z,17.83
2018-06-30T04:33:18.552Z,17.85
2018-06-30T04:34:18.758Z,17.76
2018-06-30T04:35:19.019Z,17.83
2018-06-30T04:36:19.113Z,17.85
2018-06-30T04:37:19.338Z,17.76
2018-06-30T04:38:19.611Z,17.83
2018-06-30T04:39:19.709Z,17.83
2018-06-30T04:40:19.914Z,17.89
2018-06-30T04:41:20.104Z,17.78
2018-06-30T04:42:20.224Z,17.80
2018-06-30T04:43:20.402Z,17.76
2018-06-30T04:44:20.619Z,17.82
2018-06-30T04:45:20.740Z,17.83
2018-06-30T04:46:21.001Z,17.74
2018-06-30T04:47:21.055Z,17.72
2018-06-30T04:48:21.321Z,17.71
2018-06-30T04:49:21.455Z,17.68
2018-06-30T04:50:21.577Z,17.72
2018-06-30T04:51:22.368Z,17.70
2018-06-30T04:52:21.921Z,17.72
2018-06-30T04:53:22.127Z,17.76
2018-06-30T04:54:22.261Z,17.67
2018-06-30T04:55:22.436Z,17.57
2018-06-30T04:56:22.584Z,17.54
2018-06-30T04:57:22.773Z,17.65
2018-06-30T04:58:22.973Z,17.71
2018-06-30T04:59:23.075Z,17.57
2018-06-30T05:00:23.352Z,17.59
2018-06-30T05:01:23.493Z,17.60
2018-06-30T05:02:23.713Z,17.59
2018-06-30T05:03:23.866Z,17.57
2018-06-30T05:04:24.037Z,17.67
2018-06-30T05:05:24.124Z,17.52
2018-06-30T05:06:24.364Z,17.57
2018-06-30T05:07:24.571Z,17.64
2018-06-30T05:08:24.704Z,17.46
2018-06-30T05:09:24.886Z,17.52
2018-06-30T05:10:25.035Z,17.59
2018-06-30T05:11:25.236Z,17.68
2018-06-30T05:12:25.344Z,17.57
2018-06-30T05:13:25.516Z,17.59
2018-06-30T05:14:25.662Z,17.57
2018-06-30T05:15:25.898Z,17.68
2018-06-30T05:16:26.064Z,17.70
2018-06-30T05:17:26.226Z,17.86
2018-06-30T05:18:26.379Z,17.83
2018-06-30T05:19:26.521Z,17.71
2018-06-30T05:20:26.719Z,17.82
2018-06-30T05:21:26.860Z,17.85
2018-06-30T05:22:26.986Z,17.94
2018-06-30T05:23:27.189Z,17.90
2018-06-30T05:24:27.347Z,17.87
2018-06-30T05:25:27.477Z,18.01
2018-06-30T05:26:27.655Z,18.07
2018-06-30T05:27:27.861Z,18.03
2018-06-30T05:28:28.028Z,18.22
2018-06-30T05:29:28.254Z,18.19
2018-06-30T05:30:28.444Z,18.22
2018-06-30T05:31:28.560Z,18.29
2018-06-30T05:32:28.798Z,18.23
2018-06-30T05:33:28.929Z,18.31
2018-06-30T05:34:29.069Z,18.37
2018-06-30T05:35:29.200Z,18.41
2018-06-30T05:36:29.433Z,18.33
2018-06-30T05:37:29.567Z,18.33
2018-06-30T05:38:29.779Z,18.20
2018-06-30T05:39:29.910Z,18.40
2018-06-30T05:40:30.111Z,18.37
2018-06-30T05:41:30.239Z,18.40
2018-06-30T05:42:30.490Z,18.50
2018-06-30T05:43:30.673Z,18.44
2018-06-30T05:44:30.791Z,18.55
2018-06-30T05:45:31.001Z,18.49
2018-06-30T05:46:31.173Z,18.53
2018-06-30T05:47:31.334Z,18.50
2018-06-30T05:48:31.484Z,18.38
2018-06-30T05:49:31.614Z,18.38
2018-06-30T05:50:31.825Z,18.37
2018-06-30T05:51:32.029Z,18.53
2018-06-30T05:52:32.082Z,18.60
2018-06-30T05:53:32.279Z,18.53
2018-06-30T05:54:32.464Z,18.55
2018-06-30T05:55:32.675Z,18.55
2018-06-30T05:56:32.818Z,18.52
2018-06-30T05:57:32.988Z,18.47
2018-06-30T05:58:33.164Z,18.33
2018-06-30T05:59:33.321Z,18.37
2018-06-30T06:00:33.516Z,18.43
2018-06-30T06:01:33.619Z,18.33
2018-06-30T06:02:33.842Z,18.59
2018-06-30T06:03:33.985Z,18.53
2018-06-30T06:04:34.108Z,18.58
2018-06-30T06:05:34.372Z,18.59
2018-06-30T06:06:34.536Z,18.65
2018-06-30T06:07:34.734Z,18.68
2018-06-30T06:08:34.917Z,18.66
2018-06-30T06:09:35.074Z,18.68
2018-06-30T06:10:35.233Z,18.81
2018-06-30T06:11:35.450Z,18.95
2018-06-30T06:12:35.544Z,18.86
2018-06-30T06:13:35.772Z,18.68
2018-06-30T06:14:35.933Z,18.71
2018-06-30T06:15:36.092Z,18.80
2018-06-30T06:16:36.217Z,18.93
2018-06-30T06:17:36.349Z,19.07
2018-06-30T06:18:36.539Z,19.18
2018-06-30T06:19:36.739Z,19.27
2018-06-30T06:20:36.942Z,19.39
2018-06-30T06:21:37.054Z,19.39
2018-06-30T06:22:37.273Z,19.48
2018-06-30T06:23:37.387Z,19.47
2018-06-30T06:24:37.565Z,19.49
2018-06-30T06:25:37.761Z,19.56
2018-06-30T06:26:38.386Z,19.59
2018-06-30T06:27:38.096Z,19.59
2018-06-30T06:28:38.227Z,19.63
2018-06-30T06:29:38.422Z,19.54
2018-06-30T06:30:38.541Z,19.55
2018-06-30T06:31:38.700Z,19.63
2018-06-30T06:32:38.917Z,19.62
2018-06-30T06:33:39.045Z,19.67
2018-06-30T06:34:39.124Z,19.70
2018-06-30T06:35:39.314Z,19.74
2018-06-30T06:36:39.590Z,19.79
2018-06-30T06:37:39.677Z,19.84
2018-06-30T06:38:39.900Z,19.86
2018-06-30T06:39:40.148Z,19.79
2018-06-30T06:40:40.220Z,19.88
2018-06-30T06:41:40.454Z,20.06
2018-06-30T06:42:40.569Z,20.22
2018-06-30T06:43:40.761Z,20.19
2018-06-30T06:44:41.021Z,20.18
2018-06-30T06:45:41.133Z,20.29
2018-06-30T06:46:41.323Z,20.31
2018-06-30T06:47:41.427Z,20.40
2018-06-30T06:48:41.635Z,20.37
2018-06-30T06:49:41.840Z,20.07
2018-06-30T06:50:42.014Z,20.06
2018-06-30T06:51:42.179Z,20.09
2018-06-30T06:52:42.347Z,20.11
2018-06-30T06:53:42.563Z,20.19
2018-06-30T06:54:42.720Z,20.25
2018-06-30T06:55:42.938Z,20.18
2018-06-30T06:56:43.022Z,20.18
2018-06-30T06:57:43.141Z,20.25
2018-06-30T06:58:43.329Z,20.13
2018-06-30T06:59:43.542Z,20.24
2018-06-30T07:00:43.657Z,20.34
2018-06-30T07:01:43.870Z,20.52
2018-06-30T07:02:44.015Z,20.48
2018-06-30T07:03:44.159Z,20.65
2018-06-30T07:04:44.320Z,20.47
2018-06-30T07:05:44.492Z,20.56
2018-06-30T07:06:44.625Z,20.56
2018-06-30T07:07:44.838Z,20.60
2018-06-30T07:08:44.941Z,20.63
2018-06-30T07:09:45.159Z,20.69
2018-06-30T07:10:45.337Z,20.62
2018-06-30T07:11:45.501Z,20.70
2018-06-30T07:12:45.676Z,20.78
2018-06-30T07:13:45.785Z,20.62
2018-06-30T07:14:46.011Z,20.77
2018-06-30T07:15:46.137Z,20.72
2018-06-30T07:16:46.358Z,20.75
2018-06-30T07:17:46.570Z,20.74
2018-06-30T07:18:46.751Z,20.80
2018-06-30T07:19:46.897Z,20.74
2018-06-30T07:20:47.020Z,21.02
2018-06-30T07:21:47.207Z,21.02
2018-06-30T07:22:47.381Z,21.05
2018-06-30T07:23:47.568Z,21.14
2018-06-30T07:24:47.727Z,21.25
2018-06-30T07:25:47.901Z,21.33
2018-06-30T07:26:48.008Z,21.40
2018-06-30T07:27:48.219Z,21.45
2018-06-30T07:28:48.386Z,21.48
2018-06-30T07:29:48.500Z,21.54
2018-06-30T07:30:48.787Z,21.50
2018-06-30T07:31:48.872Z,21.54
2018-06-30T07:32:49.118Z,21.48
2018-06-30T07:33:49.229Z,21.60
2018-06-30T07:34:49.438Z,21.37
2018-06-30T07:35:49.591Z,21.43
2018-06-30T07:36:49.715Z,21.27
2018-06-30T07:37:49.959Z,21.20
2018-06-30T07:38:50.118Z,21.14
2018-06-30T07:39:50.316Z,21.24
2018-06-30T07:40:50.447Z,21.27
2018-06-30T07:41:50.617Z,21.35
2018-06-30T07:42:50.801Z,21.43
2018-06-30T07:43:50.902Z,21.51
2018-06-30T07:44:51.114Z,21.67
2018-06-30T07:45:51.302Z,21.72
2018-06-30T07:46:51.427Z,21.69
2018-06-30T07:47:51.583Z,21.57
2018-06-30T07:48:51.819Z,21.66
2018-06-30T07:49:51.945Z,21.73
2018-06-30T07:50:52.984Z,21.76
2018-06-30T07:51:52.304Z,22.06
2018-06-30T07:52:52.427Z,22.04
2018-06-30T07:53:52.632Z,22.00
2018-06-30T07:54:52.806Z,21.96
2018-06-30T07:55:52.999Z,22.14
2018-06-30T07:56:53.145Z,22.32
2018-06-30T07:57:53.270Z,22.39
2018-06-30T07:58:53.451Z,22.51
2018-06-30T07:59:53.669Z,22.53
2018-06-30T08:00:53.877Z,22.53
2018-06-30T08:01:54.018Z,22.51
2018-06-30T08:02:54.182Z,22.50
2018-06-30T08:03:54.384Z,22.44
2018-06-30T08:04:54.553Z,22.38
2018-06-30T08:05:54.714Z,22.39
2018-06-30T08:06:54.801Z,22.45
2018-06-30T08:07:54.969Z,22.73
2018-06-30T08:08:55.168Z,22.81
2018-06-30T08:09:55.325Z,22.63
2018-06-30T08:10:55.522Z,22.62
2018-06-30T08:11:55.672Z,22.55
2018-06-30T08:12:55.885Z,22.47
2018-06-30T08:13:56.054Z,22.43
2018-06-30T08:14:56.213Z,22.62
2018-06-30T08:15:56.417Z,22.75
2018-06-30T08:16:56.786Z,22.83
2018-06-30T08:17:56.778Z,22.76
2018-06-30T08:18:56.898Z,22.90
2018-06-30T08:19:57.118Z,23.02
2018-06-30T08:20:57.207Z,23.23
2018-06-30T08:21:57.432Z,23.21
2018-06-30T08:22:57.531Z,23.44
2018-06-30T08:23:57.814Z,23.68
2018-06-30T08:24:57.932Z,23.88
2018-06-30T08:25:58.304Z,23.77
2018-06-30T08:26:58.368Z,24.03
2018-06-30T08:27:58.643Z,24.42
2018-06-30T08:28:58.706Z,24.70
2018-06-30T08:29:58.866Z,24.99
2018-06-30T08:30:59.042Z,25.28
2018-06-30T08:31:59.170Z,25.73
2018-06-30T08:32:59.316Z,26.06
2018-06-30T08:33:59.554Z,26.22
2018-06-30T08:34:59.921Z,26.55
2018-06-30T08:37:52.171Z,25.83
2018-06-30T08:38:45.621Z,25.91
2018-06-30T08:39:44.019Z,25.51
2018-06-30T08:40:52.987Z,25.54
2018-06-30T08:41:44.851Z,25.70
2018-06-30T08:42:46.547Z,25.69
2018-06-30T08:43:43.085Z,25.54
2018-06-30T08:44:43.324Z,25.41
2018-06-30T08:45:43.447Z,25.40
2018-06-30T08:46:43.579Z,25.18
2018-06-30T08:47:43.891Z,24.95
2018-06-30T08:48:44.128Z,24.91
2018-06-30T08:49:53.436Z,24.65
2018-06-30T08:50:45.372Z,24.45
2018-06-30T08:51:44.591Z,24.10
2018-06-30T08:52:44.703Z,24.06
2018-06-30T08:53:44.803Z,24.03
2018-06-30T08:54:44.964Z,24.11
2018-06-30T08:55:45.137Z,24.02
2018-06-30T08:56:46.170Z,23.99
2018-06-30T08:57:45.471Z,23.88
2018-06-30T08:58:45.657Z,23.87
2018-06-30T08:59:45.806Z,23.88
2018-06-30T09:00:46.611Z,23.83
2018-06-30T09:01:46.196Z,23.51
2018-06-30T09:02:46.425Z,23.55
2018-06-30T09:03:46.538Z,23.76
2018-06-30T09:04:46.868Z,23.78
2018-06-30T09:05:46.831Z,23.98
2018-06-30T09:06:48.706Z,24.03
2018-06-30T09:07:47.156Z,24.08
2018-06-30T09:08:47.315Z,24.11
2018-06-30T09:09:47.595Z,24.43
2018-06-30T09:10:47.769Z,24.32
2018-06-30T09:11:48.724Z,24.05
2018-06-30T09:12:48.192Z,24.03
2018-06-30T09:13:48.358Z,23.87
2018-06-30T09:14:48.621Z,23.92
2018-06-30T09:15:49.248Z,24.02
2018-06-30T09:16:49.855Z,24.05
2018-06-30T09:17:50.530Z,24.21
2018-06-30T09:18:49.172Z,24.24
2018-06-30T09:19:49.477Z,24.13
2018-06-30T09:22:36.650Z,24.16
2018-06-30T09:23:40.810Z,24.38
2018-06-30T09:24:41.209Z,24.61
2018-06-30T09:25:39.453Z,24.68
2018-06-30T09:26:36.366Z,24.86
2018-06-30T09:27:37.693Z,24.98
2018-06-30T09:28:38.413Z,24.98
2018-06-30T09:29:36.562Z,25.08
2018-06-30T09:30:37.376Z,25.07
2018-06-30T09:31:37.141Z,25.35
2018-06-30T09:37:36.894Z,25.01
2018-06-30T09:41:01.813Z,25.29
2018-06-30T11:14:54.956Z,32.67
2018-06-30T11:44:25.048Z,33.20
2018-06-30T11:59:56.359Z,33.15
2018-06-30T12:20:34.342Z,35.26
2018-06-30T12:28:59.278Z,33.76
2018-06-30T12:32:14.438Z,33.58
2018-06-30T12:33:31.997Z,33.76
2018-06-30T12:37:39.496Z,33.92
2018-06-30T12:57:24.135Z,34.39
2018-06-30T13:04:30.448Z,36.31
2018-06-30T13:08:19.012Z,36.00
2018-06-30T13:11:41.806Z,35.34
2018-06-30T13:12:43.674Z,35.42
2018-06-30T13:13:40.682Z,35.30
2018-06-30T13:17:58.149Z,35.90
2018-06-30T13:27:48.137Z,35.27
2018-06-30T14:07:21.449Z,33.77
2018-06-30T14:08:17.914Z,34.23
2018-06-30T14:09:29.599Z,34.06
2018-06-30T14:10:00.928Z,34.23
2018-06-30T14:11:02.060Z,34.58
2018-06-30T14:12:01.717Z,34.86
2018-06-30T14:13:11.225Z,34.58
2018-06-30T14:14:02.878Z,34.86
2018-06-30T15:48:31.678Z,31.52
2018-06-30T16:11:08.233Z,30.81
2018-06-30T16:13:21.344Z,30.53
2018-06-30T16:14:34.041Z,30.47
2018-06-30T16:24:16.343Z,30.55
2018-06-30T16:46:42.148Z,29.19
2018-06-30T17:00:48.934Z,26.63
2018-06-30T17:36:01.789Z,24.32
2018-06-30T18:01:55.054Z,23.56
2018-06-30T18:12:36.640Z,23.39
2018-06-30T18:15:42.168Z,23.23
2018-06-30T18:19:37.250Z,22.94
2018-06-30T18:20:37.305Z,23.02
2018-06-30T18:21:43.390Z,23.03
2018-06-30T18:22:33.630Z,22.94
2018-06-30T18:25:50.875Z,22.83
2018-06-30T18:26:53.073Z,22.87
2018-06-30T18:27:57.778Z,22.76
2018-06-30T18:28:57.893Z,22.55
2018-06-30T18:34:49.892Z,22.53
2018-06-30T18:39:35.050Z,22.47
2018-06-30T18:44:45.371Z,22.39
2018-06-30T18:45:02.605Z,22.44
2018-06-30T18:45:57.874Z,22.41
2018-06-30T18:46:57.021Z,22.47
2018-06-30T18:51:08.269Z,22.28
2018-06-30T18:52:06.478Z,22.25
2018-06-30T18:53:06.433Z,22.26
2018-06-30T18:54:13.659Z,22.18
2018-06-30T19:00:04.588Z,21.89
2018-06-30T19:07:15.772Z,21.79
2018-06-30T19:33:47.693Z,20.78
2018-06-30T19:34:45.018Z,20.70
2018-06-30T19:35:50.954Z,20.74
2018-06-30T19:37:58.996Z,20.70
2018-06-30T19:51:36.786Z,20.25
2018-06-30T19:52:41.148Z,20.24
2018-06-30T19:53:43.287Z,20.28
2018-06-30T20:01:49.390Z,20.07
2018-06-30T20:02:51.528Z,20.06
2018-06-30T20:03:49.527Z,20.02
2018-06-30T20:08:42.258Z,19.71
2018-06-30T20:09:42.494Z,19.77
2018-06-30T20:10:43.599Z,19.77
2018-06-30T20:11:40.441Z,19.64
2018-06-30T20:12:40.598Z,19.71
2018-06-30T20:13:40.714Z,19.62
2018-06-30T20:14:40.968Z,19.52
2018-06-30T20:15:41.122Z,19.58
2018-06-30T20:16:41.660Z,19.45
2018-06-30T20:17:41.547Z,19.39
2018-06-30T20:18:41.731Z,19.41
2018-06-30T20:19:41.921Z,19.40
2018-06-30T20:20:42.051Z,19.34
2018-06-30T20:21:42.295Z,19.34
2018-06-30T20:22:42.782Z,19.36
2018-06-30T20:23:43.231Z,19.33
2018-06-30T20:24:42.845Z,19.27
2018-06-30T20:25:42.942Z,19.18
2018-06-30T20:26:43.309Z,19.15
2018-06-30T20:27:43.430Z,19.08
2018-06-30T20:28:43.658Z,19.14
2018-06-30T20:29:43.870Z,19.00
2018-06-30T20:30:43.875Z,19.02
2018-06-30T20:31:44.119Z,18.96
2018-06-30T20:32:44.392Z,18.95
2018-06-30T20:33:44.341Z,18.98
2018-06-30T20:34:44.655Z,18.93
2018-06-30T20:35:44.707Z,18.96
2018-06-30T20:36:44.823Z,18.83
2018-06-30T20:37:45.088Z,18.80
2018-06-30T20:38:45.216Z,18.77
2018-06-30T20:39:45.342Z,18.83
2018-06-30T20:40:45.411Z,18.71
2018-06-30T20:41:45.632Z,18.73
2018-06-30T20:42:45.895Z,18.65
2018-06-30T20:43:46.107Z,18.63
2018-06-30T20:44:46.343Z,18.63
2018-06-30T20:45:46.407Z,18.59
2018-06-30T20:46:46.746Z,18.62
2018-06-30T20:47:46.866Z,18.56
2018-06-30T20:48:46.965Z,18.49
2018-06-30T20:49:47.141Z,18.53
2018-06-30T20:50:47.465Z,18.50
2018-06-30T20:51:47.535Z,18.37
2018-06-30T20:52:47.781Z,18.43
2018-06-30T20:53:48.018Z,18.41
2018-06-30T20:54:48.102Z,18.31
2018-06-30T20:55:48.380Z,18.34
2018-06-30T20:56:48.421Z,18.37
2018-06-30T20:57:48.675Z,18.34
2018-06-30T20:58:48.812Z,18.22
2018-06-30T20:59:49.059Z,18.31
2018-06-30T21:00:49.228Z,18.11
2018-06-30T21:01:49.300Z,18.11
2018-06-30T21:02:49.508Z,18.07
2018-06-30T21:03:49.625Z,18.04
2018-06-30T21:04:49.846Z,17.97
2018-06-30T21:05:50.030Z,17.98
2018-06-30T21:06:50.130Z,17.94
2018-06-30T21:07:50.298Z,17.86
2018-06-30T21:08:50.594Z,17.78
2018-06-30T21:09:50.732Z,17.82
2018-06-30T21:10:50.809Z,17.67
2018-06-30T21:11:51.196Z,17.70
2018-06-30T21:12:51.223Z,17.65
2018-06-30T21:13:51.517Z,17.72
2018-06-30T21:14:51.717Z,17.59
2018-06-30T21:15:51.754Z,17.70
2018-06-30T21:16:51.897Z,17.65
2018-06-30T21:17:52.180Z,17.51
2018-06-30T21:18:52.327Z,17.54
2018-06-30T21:19:52.419Z,17.56
2018-06-30T21:20:52.732Z,17.51
2018-06-30T21:21:52.834Z,17.45
2018-06-30T21:22:53.035Z,17.38
2018-06-30T21:23:53.382Z,17.38
2018-06-30T21:24:54.665Z,17.34
2018-06-30T21:25:53.643Z,17.24
2018-06-30T21:26:53.787Z,17.27
2018-06-30T21:27:54.074Z,17.22
2018-06-30T21:28:54.227Z,17.20
2018-06-30T21:29:54.449Z,17.23
2018-06-30T21:30:54.640Z,17.20
2018-06-30T21:31:54.733Z,17.14
2018-06-30T21:32:54.927Z,17.15
2018-06-30T21:33:55.106Z,17.09
2018-06-30T21:34:55.238Z,17.15
2018-06-30T21:35:55.435Z,17.19
2018-06-30T21:36:55.611Z,16.97
2018-06-30T21:37:55.695Z,17.01
2018-06-30T21:38:55.959Z,16.97
2018-06-30T21:39:56.117Z,16.97
2018-06-30T21:40:56.208Z,16.89
2018-06-30T21:41:56.417Z,16.90
2018-06-30T21:42:56.651Z,16.89
2018-06-30T21:43:56.761Z,16.91
2018-06-30T21:44:56.941Z,16.78
2018-06-30T21:45:57.099Z,16.71
2018-06-30T21:46:57.247Z,16.75
2018-06-30T21:47:57.450Z,16.74
2018-06-30T21:48:57.643Z,16.72
2018-06-30T21:49:57.977Z,16.66
